Map

Track Data

SID SEASON NUMBER BASIN SUBBASIN NAME ISO_TIME NATURE LAT LON WMO_WIND WMO_PRES WMO_AGENCY TRACK_TYPE DIST2LAND LANDFALL IFLAG USA_AGENCY USA_ATCF_ID USA_LAT USA_LON USA_RECORD USA_STATUS USA_WIND USA_PRES USA_SSHS USA_R34_NE USA_R34_SE USA_R34_SW USA_R34_NW USA_R50_NE USA_R50_SE USA_R50_SW USA_R50_NW USA_R64_NE USA_R64_SE USA_R64_SW USA_R64_NW USA_POCI USA_ROCI USA_RMW USA_EYE TOKYO_LAT TOKYO_LON TOKYO_GRADE TOKYO_WIND TOKYO_PRES TOKYO_R50_DIR TOKYO_R50_LONG TOKYO_R50_SHORT TOKYO_R30_DIR TOKYO_R30_LONG TOKYO_R30_SHORT TOKYO_LAND CMA_LAT CMA_LON CMA_CAT CMA_WIND CMA_PRES HKO_LAT HKO_LON HKO_CAT HKO_WIND HKO_PRES NEWDELHI_LAT NEWDELHI_LON NEWDELHI_GRADE NEWDELHI_WIND NEWDELHI_PRES NEWDELHI_CI NEWDELHI_DP NEWDELHI_POCI REUNION_LAT REUNION_LON REUNION_TYPE REUNION_WIND REUNION_PRES REUNION_TNUM REUNION_CI REUNION_RMW REUNION_R34_NE REUNION_R34_SE REUNION_R34_SW REUNION_R34_NW REUNION_R50_NE REUNION_R50_SE REUNION_R50_SW REUNION_R50_NW REUNION_R64_NE REUNION_R64_SE REUNION_R64_SW REUNION_R64_NW BOM_LAT BOM_LON BOM_TYPE BOM_WIND BOM_PRES BOM_TNUM BOM_CI BOM_RMW BOM_R34_NE BOM_R34_SE BOM_R34_SW BOM_R34_NW BOM_R50_NE BOM_R50_SE BOM_R50_SW BOM_R50_NW BOM_R64_NE BOM_R64_SE BOM_R64_SW BOM_R64_NW BOM_ROCI BOM_POCI BOM_EYE BOM_POS_METHOD BOM_PRES_METHOD NADI_LAT NADI_LON NADI_CAT NADI_WIND NADI_PRES WELLINGTON_LAT WELLINGTON_LON WELLINGTON_WIND WELLINGTON_PRES DS824_LAT DS824_LON DS824_STAGE DS824_WIND DS824_PRES TD9636_LAT TD9636_LON TD9636_STAGE TD9636_WIND TD9636_PRES TD9635_LAT TD9635_LON TD9635_WIND TD9635_PRES TD9635_ROCI NEUMANN_LAT NEUMANN_LON NEUMANN_CLASS NEUMANN_WIND NEUMANN_PRES MLC_LAT MLC_LON MLC_CLASS MLC_WIND MLC_PRES USA_GUST BOM_GUST BOM_GUST_PER REUNION_GUST REUNION_GUST_PER USA_SEAHGT USA_SEARAD_NE USA_SEARAD_SE USA_SEARAD_SW USA_SEARAD_NW STORM_SPEED STORM_DIR
2002122S07063 2002 20 SI MM KESINY 2002-05-02 06:00:00 TS -7.23333 62.7000 25 1002 reunion main 1541 1517 O____O______O_ jtwc_sh SH232002 -7.30000 62.0000 TD 25 1002 -1 1004 150 40 -7.10000 64.1000 2 25 1002 1.50000 1.50000 -7.30000 62.0000 TC 25 6 138
2002122S07063 2002 20 SI MM KESINY 2002-05-02 09:00:00 TS -7.46752 62.9116 main 1517 1505 P____P______P_ SH232002 -7.48498 62.1400 TD 25 1002 -1 1004 150 40 -7.43260 64.4548 2 25 1001 -7.48498 62.1400 TC 25 7 135
2002122S07063 2002 20 SI MM KESINY 2002-05-02 12:00:00 TS -7.70000 63.1667 25 1000 reunion main 1509 1497 O____O______O_ jtwc_sh SH232002 -7.70000 62.4000 TD 25 1002 -1 1004 150 40 -7.70000 64.7000 2 25 1000 2.00000 2.00000 -7.70000 62.4000 TC 25 7 128
2002122S07063 2002 20 SI MM KESINY 2002-05-02 15:00:00 TS -7.92662 63.5025 main 1501 1490 P____P______P_ SH232002 -7.95745 62.8675 TD 25 1002 -1 1004 150 40 -7.86495 64.7726 2 26 999 -7.95745 62.8675 TC 25 9 120
2002122S07063 2002 20 SI MM KESINY 2002-05-02 18:00:00 TS -8.13333 63.9333 27 999 reunion main 1500 1494 O____O______O_ jtwc_sh SH232002 -8.20000 63.5000 TD 25 1002 -1 1004 150 40 -8.00000 64.8000 2 27 999 2.00000 2.00000 -8.20000 63.5000 TC 25 10 111
2002122S07063 2002 20 SI MM KESINY 2002-05-02 21:00:00 TS -8.29769 64.4909 main 1510 1510 P____P______P_ SH232002 -8.35784 64.2950 TD 25 1002 -1 1004 150 40 -8.17740 64.8826 2 28 998 -8.35784 64.2950 TC 25 11 107
2002122S07063 2002 20 SI MM KESINY 2002-05-03 00:00:00 TS -8.46667 65.0333 30 998 reunion main 1517 1517 O____O______O_ jtwc_sh SH232002 -8.50000 65.0000 TD 25 1002 -1 1004 150 40 -8.40000 65.1000 2 30 998 2.50000 2.50000 -8.50000 65.0000 TC 25 10 114
2002122S07063 2002 20 SI MM KESINY 2002-05-03 03:00:00 TS -8.70742 65.4291 main 1521 1514 P____P______P_ SH232002 -8.69975 65.3400 TD 30 999 -1 1003 150 40 -8.72277 65.6072 2 30 998 -8.69975 65.3400 TC 30 8 125
2002122S07063 2002 20 SI MM KESINY 2002-05-03 06:00:00 TS -8.93333 65.7000 30 998 reunion main 1520 1511 O____O______O_ jtwc_sh SH232002 -8.90000 65.5000 TS 35 997 0 1003 150 40 -9.00000 66.1000 2 30 998 2.50000 2.50000 -8.90000 65.5000 TC 35 6 130
2002122S07063 2002 20 SI MM KESINY 2002-05-03 09:00:00 TS -9.06494 65.8659 main 1514 1511 P____P______P_ SH232002 -9.05747 65.6650 TS 35 997 0 1003 150 40 -9.07988 66.2676 2 30 998 -9.05747 65.6650 TC 35 4 132
2002122S07063 2002 20 SI MM KESINY 2002-05-03 12:00:00 TS -9.16667 65.9667 30 998 reunion main 1511 1508 O____O______O_ jtwc_sh SH232002 -9.20000 65.8000 TS 35 997 0 1003 150 40 -9.10000 66.3000 2 30 998 2.00000 2.50000 -9.20000 65.8000 TC 35 3 137
2002122S07063 2002 20 SI MM KESINY 2002-05-03 15:00:00 TS -9.30000 66.0933 main 1508 1499 P____P______P_ SH232002 -9.35750 65.9575 TS 35 997 0 1003 145 60 -9.18500 66.3650 2 30 997 -9.35750 65.9575 TC 35 4 139
2002122S07063 2002 20 SI MM KESINY 2002-05-03 18:00:00 TS -9.43333 66.2000 30 997 reunion main 1505 1494 O____O______O_ jtwc_sh SH232002 -9.50000 66.1000 TS 35 997 0 50 50 120 120 1004 140 80 -9.30000 66.4000 2 30 997 2.50000 2.50000 -9.50000 66.1000 TC 35 3 142
2002122S07063 2002 20 SI MM KESINY 2002-05-03 21:00:00 TS -9.55999 66.2992 main 1494 1485 P____P______P_ SH232002 -9.61500 66.2300 TS 35 997 0 50 80 120 100 1004 140 80 -9.44998 66.4375 2 32 996 -9.61500 66.2300 TC 35 3 150
2002122S07063 2002 20 SI MM KESINY 2002-05-04 00:00:00 TS -9.66667 66.3333 35 995 reunion main 1485 1485 O____O______O_ jtwc_sh SH232002 -9.70000 66.3000 TS 35 997 0 50 110 120 80 1004 140 80 -9.60000 66.4000 3 35 995 2.50000 2.50000 -9.70000 66.3000 TC 35 2 189
2002122S07063 2002 20 SI MM KESINY 2002-05-04 03:00:00 TS -9.74335 66.2509 main 1485 1463 P____P______P_ SH232002 -9.75750 66.2725 TS 37 995 0 55 110 120 100 1004 140 65 -9.71505 66.2075 3 35 995 -9.75750 66.2725 TC 37 2 236
2002122S07063 2002 20 SI MM KESINY 2002-05-04 06:00:00 TS -9.80000 66.1333 35 995 reunion main 1463 1463 O____O______O_ jtwc_sh SH232002 -9.80000 66.2000 TS 40 994 0 60 110 120 120 1004 140 50 -9.80000 66.0000 3 35 995 2.50000 2.50000 -9.80000 66.2000 TC 40 2 235
2002122S07063 2002 20 SI MM KESINY 2002-05-04 09:00:00 TS -9.85248 66.0933 main 1454 1447 P____P______P_ SH232002 -9.84999 66.1650 TS 40 994 0 60 110 120 120 1004 140 50 -9.85746 65.9500 3 36 993 -9.84999 66.1650 TC 40 1 223
2002122S07063 2002 20 SI MM KESINY 2002-05-04 12:00:00 TS -9.90000 66.0333 38 992 reunion main 1447 1432 O____O______O_ jtwc_sh SH232002 -9.90000 66.1000 TS 40 994 0 60 110 120 120 1004 140 50 -9.90000 65.9000 3 38 992 3.00000 3.00000 -9.90000 66.1000 TC 40 2 239
2002122S07063 2002 20 SI MM KESINY 2002-05-04 15:00:00 TS -9.95745 65.9117 main 1432 1419 P____P______P_ SH232002 -9.95745 65.9950 TS 42 992 0 65 90 122 125 1004 160 50 -9.95747 65.7450 3 39 991 -9.95745 65.9950 TC 42 3 253
2002122S07063 2002 20 SI MM KESINY 2002-05-04 18:00:00 TS -10.0000 65.7000 40 990 reunion main 1419 1400 O____O______O_ jtwc_sh SH232002 -10.0000 65.8000 TS 45 991 0 70 70 125 130 1004 180 50 -10.0000 65.5000 3 40 990 3.00000 3.00000 -10.0000 65.8000 TC 45 5 265
2002122S07063 2002 20 SI MM KESINY 2002-05-04 21:00:00 TS -10.0000 65.3875 main 1400 1375 P____P______P_ SH232002 -10.0000 65.4874 TS 45 991 0 60 60 117 122 1004 177 42 -9.99997 65.1874 3 40 990 -10.0000 65.4874 TC 45 7 270
2002122S07063 2002 20 SI MM KESINY 2002-05-05 00:00:00 TS -10.0000 65.0000 40 990 reunion main 1375 1351 O____O______O_ jtwc_sh SH232002 -10.0000 65.1000 TS 45 991 0 50 50 110 115 1004 175 35 -10.0000 64.8000 3 40 990 3.00000 3.00000 -10.0000 65.1000 TC 45 8 267
2002122S07063 2002 20 SI MM KESINY 2002-05-05 03:00:00 TS -10.0374 64.6033 main 1351 1318 P____P______P_ SH232002 -10.0349 64.7150 TS 45 991 0 50 50 110 115 1004 175 35 -10.0424 64.3800 3 40 990 -10.0349 64.7150 TC 45 8 263
2002122S07063 2002 20 SI MM KESINY 2002-05-05 06:00:00 TS -10.1000 64.1667 40 990 reunion main 1318 1281 O____O______O_ jtwc_sh SH232002 -10.1000 64.3000 TS 45 991 0 50 50 110 115 1004 175 35 -10.1000 63.9000 3 40 990 3.00000 3.00000 -10.1000 64.3000 TC 45 9 261
2002122S07063 2002 20 SI MM KESINY 2002-05-05 09:00:00 TS -10.1833 63.6859 main 1281 1245 P____P______P_ SH232002 -10.1999 63.8650 TS 45 991 0 50 50 112 115 1004 175 35 -10.1501 63.3275 3 42 988 -10.1999 63.8650 TC 45 10 260
2002122S07063 2002 20 SI MM KESINY 2002-05-05 12:00:00 TS -10.2667 63.2000 45 987 reunion main 1245 1225 O____O______O_ jtwc_sh SH232002 -10.3000 63.4000 TS 45 991 0 50 50 115 115 1004 175 35 -10.2000 62.8000 3 45 987 3.50000 3.50000 -10.3000 63.4000 TC 45 9 261
2002122S07063 2002 20 SI MM KESINY 2002-05-05 15:00:00 TS -10.3242 62.7417 main 1220 1196 P____P______P_ SH232002 -10.3650 62.8850 TS 50 987 0 45 75 117 87 1003 165 27 -10.2424 62.4550 3 47 985 -10.3650 62.8850 TC 50 9 263
2002122S07063 2002 20 SI MM KESINY 2002-05-05 18:00:00 TS -10.3667 62.3333 50 983 reunion main 1192 1179 O____O______O_ jtwc_sh SH232002 -10.4000 62.4000 TS 55 984 0 40 100 120 60 1003 155 20 -10.3000 62.2000 3 50 983 3.50000 3.50000 -10.4000 62.4000 TC 55 7 264
2002122S07063 2002 20 SI MM KESINY 2002-05-05 21:00:00 TS -10.4024 61.9942 main 1179 1167 P____P______P_ SH232002 -10.3999 62.0200 TS 55 984 0 40 100 120 60 1003 155 20 -10.4075 61.9425 3 52 981 -10.3999 62.0200 TC 55 6 264
2002122S07063 2002 20 SI MM KESINY 2002-05-06 00:00:00 TS -10.4333 61.7000 55 980 reunion main 1167 1145 O____O______O_ jtwc_sh SH232002 -10.4000 61.7000 TS 55 984 0 40 100 120 60 1003 155 20 -10.5000 61.7000 3 55 980 4.00000 4.00000 -10.4000 61.7000 TC 55 6 264
2002122S07063 2002 20 SI MM KESINY 2002-05-06 03:00:00 TS -10.4666 61.4042 main 1145 1134 P____P______P_ SH232002 -10.4425 61.3850 TS 60 980 0 45 110 120 70 1003 152 20 -10.5150 61.4425 3 57 977 -10.4425 61.3850 TC 60 6 263
2002122S07063 2002 20 SI MM KESINY 2002-05-06 06:00:00 TS -10.5000 61.1333 60 975 reunion main 1134 1127 O____O______O_ jtwc_sh SH232002 -10.5000 61.1000 TY 65 976 1 50 120 120 80 1003 150 20 -10.5000 61.2000 3 60 975 4.00000 4.00000 -10.5000 61.1000 TC 65 5 263
2002122S07063 2002 20 SI MM KESINY 2002-05-06 09:00:00 TS -10.5308 60.8950 main 1127 1110 P____P______P_ SH232002 -10.5500 60.8425 TY 65 976 1 -10.4925 61.0000 3 60 975 -10.5500 60.8425 TC 65 5 262
2002122S07063 2002 20 SI MM KESINY 2002-05-06 12:00:00 TS -10.5667 60.6667 60 975 reunion main 1110 1101 O____O______O_ jtwc_sh SH232002 -10.6000 60.6000 TY 65 976 1 -10.5000 60.8000 3 60 975 4.00000 4.00000 -10.6000 60.6000 TC 65 5 260
2002122S07063 2002 20 SI MM KESINY 2002-05-06 15:00:00 TS -10.6167 60.4192 main 1101 1085 P____P______P_ SH232002 -10.6500 60.3500 TY 65 976 1 -10.5500 60.5575 3 60 975 -10.6500 60.3500 TC 65 5 258
2002122S07063 2002 20 SI MM KESINY 2002-05-06 18:00:00 TS -10.6667 60.1667 60 975 reunion main 1085 1078 O____O______O_ jtwc_sh SH232002 -10.7000 60.1000 TY 65 976 1 70 120 120 80 1002 180 20 -10.6000 60.3000 3 60 975 3.50000 4.00000 -10.7000 60.1000 TC 65 5 261
2002122S07063 2002 20 SI MM KESINY 2002-05-06 21:00:00 TS -10.6925 59.9241 main 1078 1073 P____P______P_ SH232002 -10.7425 59.8575 TY 65 976 1 85 120 120 90 1002 165 20 -10.5925 60.0574 3 60 975 -10.7425 59.8575 TC 65 5 262
2002122S07063 2002 20 SI MM KESINY 2002-05-07 00:00:00 TS -10.7333 59.6667 60 976 reunion main 1073 1056 O____O______O_ jtwc_sh SH232002 -10.8000 59.6000 TY 65 976 1 100 120 120 100 1002 150 20 -10.6000 59.8000 3 60 976 3.50000 4.00000 -10.8000 59.6000 TC 65 5 256
2002122S07063 2002 20 SI MM KESINY 2002-05-07 03:00:00 TS -10.8208 59.3817 main 1056 1028 P____P______P_ SH232002 -10.8925 59.3150 TY 60 980 0 100 120 120 100 1002 150 20 -10.6775 59.5150 3 55 979 -10.8925 59.3150 TC 60 6 251
2002122S07063 2002 20 SI MM KESINY 2002-05-07 06:00:00 TS -10.9333 59.0667 50 983 reunion main 1028 983 O____O______O_ jtwc_sh SH232002 -11.0000 59.0000 TS 55 984 0 100 120 120 100 1002 150 20 -10.8000 59.2000 3 50 983 3.00000 3.50000 -11.0000 59.0000 TC 55 7 250
2002122S07063 2002 20 SI MM KESINY 2002-05-07 09:00:00 TS -11.0500 58.7292 main 983 945 P____P______P_ SH232002 -11.1000 58.6575 TS 52 985 0 100 120 120 100 1002 150 20 -10.9499 58.8725 3 47 985 -11.1000 58.6575 TC 52 7 251
2002122S07063 2002 20 SI MM KESINY 2002-05-07 12:00:00 TS -11.1667 58.3667 45 987 reunion main 945 900 O____O______O_ jtwc_sh SH232002 -11.2000 58.3000 TS 50 987 0 100 120 120 100 1002 150 20 -11.1000 58.5000 3 45 987 2.50000 3.50000 -11.2000 58.3000 TC 50 7 253
2002122S07063 2002 20 SI MM KESINY 2002-05-07 15:00:00 TS -11.2716 58.0033 main 900 855 P____P______P_ SH232002 -11.2999 57.9724 TS 50 987 0 80 105 105 80 1002 145 25 -11.2150 58.0650 3 44 988 -11.2999 57.9724 TC 50 8 255
2002122S07063 2002 20 SI MM KESINY 2002-05-07 18:00:00 TS -11.3667 57.6000 43 989 reunion main 855 810 O____O______O_ jtwc_sh SH232002 -11.4000 57.6000 TS 50 987 0 60 90 90 60 1003 140 30 -11.3000 57.6000 3 43 989 2.50000 3.00000 -11.4000 57.6000 TC 50 9 257
2002122S07063 2002 20 SI MM KESINY 2002-05-07 21:00:00 TS -11.4674 57.1467 main 800 758 P____P______P_ SH232002 -11.5150 57.1301 TS 47 989 0 60 90 90 60 1003 140 30 -11.3723 57.1800 3 41 990 -11.5150 57.1301 TC 47 10 260
2002122S07063 2002 20 SI MM KESINY 2002-05-08 00:00:00 TS -11.5333 56.6333 40 992 reunion main 747 694 O____O______O_ jtwc_sh SH232002 -11.6000 56.6000 TS 45 991 0 60 90 90 60 1003 140 30 -11.4000 56.7000 3 40 992 2.50000 3.00000 -11.6000 56.6000 TC 45 11 267
2002122S07063 2002 20 SI MM KESINY 2002-05-08 03:00:00 TS -11.5141 56.0723 main 694 631 P____P______P_ SH232002 -11.5998 56.0723 TS 45 991 0 45 105 82 45 1003 160 30 -11.3426 56.0723 3 40 992 -11.5998 56.0723 TC 45 11 272
2002122S07063 2002 20 SI MM KESINY 2002-05-08 06:00:00 TS -11.5000 55.4667 40 992 reunion main 631 565 O____O______O_ jtwc_sh SH232002 -11.6000 55.5000 TS 45 991 0 30 120 75 30 1003 180 30 -11.3000 55.4000 3 40 992 3.00000 3.00000 -11.6000 55.5000 TC 45 12 267
2002122S07063 2002 20 SI MM KESINY 2002-05-08 09:00:00 TS -11.5825 54.8284 main 555 489 P____P______P_ SH232002 -11.6850 54.8501 TS 45 991 0 35 120 82 35 1003 165 30 -11.3774 54.7851 3 41 990 -11.6850 54.8501 TC 45 13 261
2002122S07063 2002 20 SI MM KESINY 2002-05-08 12:00:00 TS -11.7000 54.2000 43 989 reunion main 489 434 O____O______O_ jtwc_sh SH232002 -11.8000 54.2000 TS 45 991 0 40 120 90 40 1003 150 30 -11.5000 54.2000 3 43 989 3.00000 3.00000 -11.8000 54.2000 TC 45 12 260
2002122S07063 2002 20 SI MM KESINY 2002-05-08 15:00:00 TS -11.7999 53.6200 main 423 368 P____P______P_ SH232002 -11.8999 53.6200 TS 45 991 0 40 120 90 40 1003 150 30 -11.6000 53.6200 3 46 987 -11.8999 53.6200 TC 45 11 259
2002122S07063 2002 20 SI MM KESINY 2002-05-08 18:00:00 TS -11.9000 53.1000 50 985 reunion main 368 324 O____O______O_ jtwc_sh SH232002 -12.0000 53.1000 TS 45 991 0 40 120 90 40 1003 150 30 -11.7000 53.1000 3 50 985 3.50000 3.50000 -12.0000 53.1000 TC 45 10 258
2002122S07063 2002 20 SI MM KESINY 2002-05-08 21:00:00 TS -11.9973 52.6616 main 324 279 P____P______P_ SH232002 -12.0998 52.6424 TS 50 987 0 40 120 90 40 1003 150 30 -11.7922 52.6999 3 52 982 -12.0998 52.6424 TC 50 9 257
2002122S07063 2002 20 SI MM KESINY 2002-05-09 00:00:00 TS -12.1000 52.2333 55 980 reunion main 269 224 O____O______O_ jtwc_sh SH232002 -12.2000 52.2000 TS 55 984 0 40 120 90 40 1003 150 30 -11.9000 52.3000 3 55 980 4.00000 4.00000 -12.2000 52.2000 TC 55 9 257
2002122S07063 2002 20 SI MM KESINY 2002-05-09 03:00:00 TS -12.2116 51.7416 main 215 161 P____P______P_ SH232002 -12.2999 51.7224 TS 57 982 0 50 110 105 80 1003 150 30 -12.0350 51.7799 3 60 975 -12.2999 51.7224 TC 57 10 257
2002122S07063 2002 20 SI MM KESINY 2002-05-09 06:00:00 TS -12.3333 51.2000 65 970 reunion main 161 94 O____O______O_ jtwc_sh SH232002 -12.4000 51.2000 TS 60 980 0 60 100 120 120 1003 150 30 -12.2000 51.2000 4 65 970 4.50000 4.50000 -12.4000 51.2000 TC 60 11 257
2002122S07063 2002 20 SI MM KESINY 2002-05-09 09:00:00 TS -12.4667 50.5975 main 94 39 P____P______P_ SH232002 -12.5001 50.6000 TS 62 978 0 60 100 120 120 1003 150 25 -12.4000 50.5926 4 67 967 -12.5001 50.6000 TC 62 12 257
2002122S07063 2002 20 SI MM KESINY 2002-05-09 12:00:00 TS -12.6000 50.0000 70 965 reunion main 39 0 O____O______O_ jtwc_sh SH232002 -12.6000 50.0000 TY 65 976 1 60 100 120 120 1003 150 20 -12.6000 50.0000 4 70 965 4.00000 4.50000 -12.6000 50.0000 TC 65 11 257
2002122S07063 2002 20 SI MM KESINY 2002-05-09 15:00:00 TS -12.7115 49.4724 main 0 0 P____P______P_ SH232002 -12.6848 49.4849 TY 60 980 0 60 100 120 120 1003 150 20 -12.7650 49.4475 4 57 976 -12.6848 49.4849 TC 60 10 257
2002122S07063 2002 20 SI MM KESINY 2002-05-09 18:00:00 TS -12.8333 49.0000 45 987 reunion main 0 0 O____O______O_ jtwc_sh SH232002 -12.8000 49.0000 TS 55 984 0 60 100 120 120 1003 150 20 -12.9000 49.0000 8 45 987 2.50000 3.50000 -12.8000 49.0000 TC 55 9 253
2002122S07063 2002 20 SI MM KESINY 2002-05-09 21:00:00 TS -12.9925 48.5533 main 24 24 P____P______P_ SH232002 -12.9850 48.4776 TS 50 987 0 60 100 120 120 1003 150 20 -13.0073 48.7049 8 40 991 -12.9850 48.4776 TC 50 9 248
2002122S07063 2002 20 SI MM KESINY 2002-05-10 00:00:00 TS -13.1667 48.1667 35 995 reunion main 46 35 O____O______O_ jtwc_sh SH232002 -13.2000 48.0000 TS 45 991 0 60 100 120 120 1003 150 20 -13.1000 48.5000 3 35 995 2.00000 2.50000 -13.2000 48.0000 TC 45 8 246
2002122S07063 2002 20 SI MM KESINY 2002-05-10 03:00:00 TS -13.3108 47.8241 main 39 39 P____P______P_ SH232002 -13.3700 47.5899 TS 42 992 0 1003 150 27 -13.1925 48.2925 3 32 996 -13.3700 47.5899 TC 42 7 240
2002122S07063 2002 20 SI MM KESINY 2002-05-10 06:00:00 TS -13.5000 47.5667 30 998 reunion main 39 39 O____O______O_ jtwc_sh SH232002 -13.6000 47.3000 TS 40 994 0 1003 150 35 -13.3000 48.1000 2 30 998 2.00000 2.50000 -13.6000 47.3000 TC 40 6 221
2002122S07063 2002 20 SI MM KESINY 2002-05-10 09:00:00 TS -13.7866 47.4058 main 54 53 P____P______P_ SH232002 -13.9624 47.1624 TS 37 995 0 1003 150 35 -13.4350 47.8925 2 27 999 -13.9624 47.1624 TC 37 7 202
2002122S07063 2002 20 SI MM KESINY 2002-05-10 12:00:00 TS -14.1333 47.3000 25 1000 reunion main 54 39 O____O______O_ jtwc_sh SH232002 -14.4000 47.1000 TS 35 997 0 1003 150 35 -13.6000 47.7000 2 25 1000 1.50000 2.00000 -14.4000 47.1000 TC 35 8 197
2002122S07063 2002 20 SI MM KESINY 2002-05-10 15:00:00 TS -14.5225 47.1684 main 39 21 P____P______P_ SH232002 -14.8875 46.9851 TS 32 998 -1 1003 150 35 -13.7925 47.5350 2 25 1001 -14.8875 46.9851 TC 32 8 197
2002122S07063 2002 20 SI MM KESINY 2002-05-10 18:00:00 TS -14.8667 47.0667 25 1002 reunion main 21 11 O____O______O_ jtwc_sh SH232002 -15.3000 46.9000 TD 30 1000 -1 1003 150 35 -14.0000 47.4000 2 25 1002 1.50000 2.00000 -15.3000 46.9000 TC 30 6 195
2002122S07063 2002 20 SI MM KESINY 2002-05-10 21:00:00 TS -15.0708 47.0158 main 11 0 P____P______P_ SH232002 -15.5100 46.8849 TD 30 1000 -1 -14.1925 47.2775 2 22 1003 -15.5100 46.8849 TC 30 3 192
2002122S07063 2002 20 SI MM KESINY 2002-05-11 00:00:00 TS -15.2000 47.0000 20 1004 reunion main 0 0 O____O______O_ jtwc_sh SH232002 -15.6000 46.9000 TD 30 1000 -1 -14.4000 47.2000 2 20 1004 1.50000 1.50000 -15.6000 46.9000 TC 30 3 0
2002122S07063 2002 20 SI MM KESINY 2002-05-11 03:00:00 TS -15.3242 46.9950 main 0 0 P____P______P_ SH232002 -15.6650 46.9000 TD 27 1001 -1 -14.6425 47.1850 2 20 1004 -15.6650 46.9000 TC 27 3 184
2002122S07063 2002 20 SI MM KESINY 2002-05-11 06:00:00 TS -15.4818 46.9818 20 1005 reunion main 10 0 O____O______O_ jtwc_sh SH232002 -15.7000 46.9000 TD 25 1002 -1 -14.9000 47.2000 6 20 1005 9.90000 -15.7000 46.9000 TC 25 3 188
2002122S07063 2002 20 SI MM KESINY 2002-05-11 09:00:00 TS -15.6305 46.9610 main 0 0 P____P______P_ SH232002 -15.7500 46.9000 TD 25 1002 -1 -15.1525 47.2050 6 20 1005 -15.7500 46.9000 TC 25 3 190
2002122S07063 2002 20 SI MM KESINY 2002-05-11 12:00:00 TS -15.7429 46.9429 20 1006 reunion main 0 0 O____O______O_ jtwc_sh SH232002 -15.8000 46.9000 TD 25 1002 -1 -15.4000 47.2000 6 20 1006 9.90000 -15.8000 46.9000 TC 25 2 195
2002122S07063 2002 20 SI MM KESINY 2002-05-11 15:00:00 TS -15.8500 46.9000 main 0 0 P___________P_ SH232002 -15.8500 46.9000 TD 25 1002 -1 6 -15.8500 46.9000 TC 25 2 196
2002122S07063 2002 20 SI MM KESINY 2002-05-11 18:00:00 TS -15.9000 46.9000 main 0 O___________O_ jtwc_sh SH232002 -15.9000 46.9000 TD 25 1002 -1 -15.9000 46.9000 TC 25 1 153

About IBTrACS Database

This database is a web-friendly format of International Best Track Archive for Climate Stewardship (IBTrACS), a global best track data archive curated by NOAA dating back to 1842.

Updated: 2021-10-25